createdAt,value
2018-03-14T00:00:42.875Z,5.10
2018-03-14T00:03:11.532Z,5.27
2018-03-14T00:05:39.289Z,4.90
2018-03-14T00:08:07.045Z,5.80
2018-03-14T00:10:34.838Z,4.67
2018-03-14T00:13:02.607Z,4.63
2018-03-14T00:15:30.358Z,4.20
2018-03-14T00:17:58.206Z,23.43
2018-03-14T00:20:26.004Z,5.77
2018-03-14T00:22:53.756Z,8.60
2018-03-14T00:25:21.517Z,7.47
2018-03-14T00:27:49.327Z,6.10
2018-03-14T00:30:17.163Z,6.33
2018-03-14T00:32:44.968Z,5.90
2018-03-14T00:35:12.723Z,5.60
2018-03-14T00:37:40.478Z,5.77
2018-03-14T00:40:09.029Z,5.33
2018-03-14T00:42:36.798Z,4.90
2018-03-14T00:45:04.616Z,5.80
2018-03-14T00:47:32.409Z,4.93
2018-03-14T00:50:00.229Z,4.80
2018-03-14T00:52:28.004Z,5.37
2018-03-14T00:54:55.775Z,5.30
2018-03-14T00:57:23.541Z,5.27
2018-03-14T00:59:51.300Z,5.43
2018-03-14T01:02:19.062Z,4.70
2018-03-14T01:04:46.871Z,5.57
2018-03-14T01:07:15.410Z,4.90
2018-03-14T01:09:43.944Z,4.33
2018-03-14T01:12:12.474Z,4.50
2018-03-14T01:14:40.264Z,4.63
2018-03-14T01:17:08.033Z,5.17
2018-03-14T01:19:35.840Z,4.77
2018-03-14T01:22:03.616Z,6.67
2018-03-14T01:24:31.437Z,5.57
2018-03-14T01:27:00.105Z,5.07
2018-03-14T01:29:28.025Z,4.70
2018-03-14T01:31:55.888Z,5.00
2018-03-14T01:34:23.801Z,5.00
2018-03-14T01:36:51.637Z,4.57
2018-03-14T01:39:19.741Z,5.30
2018-03-14T01:41:48.377Z,5.50
2018-03-14T01:44:16.277Z,5.13
2018-03-14T01:46:44.114Z,5.10
2018-03-14T01:49:12.005Z,4.63
2018-03-14T01:51:39.889Z,4.47
2018-03-14T01:54:07.809Z,4.77
2018-03-14T01:56:35.680Z,4.97
2018-03-14T01:59:03.528Z,5.33
2018-03-14T02:01:31.379Z,5.30
2018-03-14T02:03:59.230Z,5.13
2018-03-14T02:06:27.731Z,4.53
2018-03-14T02:08:55.577Z,4.70
2018-03-14T02:11:23.457Z,5.03
2018-03-14T02:13:51.335Z,5.00
2018-03-14T02:16:19.168Z,5.13
2018-03-14T02:18:46.986Z,5.40
2018-03-14T02:21:14.746Z,4.87
2018-03-14T02:23:42.528Z,4.57
2018-03-14T02:26:10.277Z,5.23
2018-03-14T02:28:38.039Z,4.73
2018-03-14T02:31:05.850Z,4.50
2018-03-14T02:33:33.612Z,4.90
2018-03-14T02:36:02.154Z,4.83
2018-03-14T02:38:29.965Z,5.07
2018-03-14T02:40:58.508Z,4.57
2018-03-14T02:43:26.303Z,4.33
2018-03-14T02:45:54.828Z,5.43
2018-03-14T02:48:22.563Z,4.67
2018-03-14T02:50:51.068Z,4.43
2018-03-14T02:53:18.819Z,4.60
2018-03-14T02:55:46.596Z,5.10
2018-03-14T02:58:14.335Z,4.40
2018-03-14T03:00:42.864Z,4.43
2018-03-14T03:03:10.623Z,4.73
2018-03-14T03:05:38.392Z,4.83
2018-03-14T03:08:06.148Z,5.27
2018-03-14T03:10:33.887Z,4.77
2018-03-14T03:13:01.665Z,4.83
2018-03-14T03:15:30.272Z,4.67
2018-03-14T03:17:58.014Z,4.93
2018-03-14T03:20:25.762Z,4.50
2018-03-14T03:22:53.520Z,4.57
2018-03-14T03:25:21.296Z,4.80
2018-03-14T03:27:49.042Z,4.80
2018-03-14T03:30:16.813Z,5.13
2018-03-14T03:32:44.560Z,4.73
2018-03-14T03:35:13.053Z,4.97
2018-03-14T03:37:40.800Z,4.53
2018-03-14T03:40:09.356Z,4.70
2018-03-14T03:42:37.144Z,5.20
2018-03-14T03:45:05.732Z,5.10
2018-03-14T03:47:34.267Z,4.87
2018-03-14T03:50:02.018Z,4.83
2018-03-14T03:52:29.810Z,5.90
2018-03-14T03:54:57.673Z,4.73
2018-03-14T03:57:26.239Z,5.20
2018-03-14T03:59:54.017Z,5.10
2018-03-14T04:02:21.765Z,4.63
2018-03-14T04:04:49.508Z,5.60
2018-03-14T04:07:17.266Z,4.30
2018-03-14T04:09:45.003Z,5.07
2018-03-14T04:12:12.750Z,5.70
2018-03-14T04:14:41.258Z,4.33
2018-03-14T04:17:08.909Z,5.17
2018-03-14T04:19:37.331Z,5.40
2018-03-14T04:22:05.022Z,5.03
2018-03-14T04:24:32.690Z,5.47
2018-03-14T04:27:01.146Z,5.20
2018-03-14T04:29:28.804Z,5.13
2018-03-14T04:31:56.471Z,4.53
2018-03-14T04:34:24.140Z,5.30
2018-03-14T04:36:51.891Z,5.10
2018-03-14T04:39:19.562Z,4.93
2018-03-14T04:41:47.236Z,4.37
2018-03-14T04:44:14.899Z,4.17
2018-03-14T04:46:42.582Z,4.73
2018-03-14T04:49:11.008Z,5.17
2018-03-14T04:51:38.663Z,4.37
2018-03-14T04:54:07.152Z,4.60
2018-03-14T04:56:34.801Z,4.60
2018-03-14T04:59:02.462Z,4.70
2018-03-14T05:01:30.140Z,4.50
2018-03-14T05:03:57.816Z,5.10
2018-03-14T05:06:25.520Z,4.67
2018-03-14T05:08:53.256Z,4.87
2018-03-14T05:11:21.034Z,5.27
2018-03-14T05:13:48.781Z,4.87
2018-03-14T05:16:17.301Z,5.13
2018-03-14T05:18:45.080Z,5.00
2018-03-14T05:21:12.860Z,4.07
2018-03-14T05:23:40.625Z,4.87
2018-03-14T05:26:08.370Z,5.13
2018-03-14T05:28:36.147Z,5.03
2018-03-14T05:31:03.918Z,4.70
2018-03-14T05:33:31.673Z,4.47
2018-03-14T05:35:59.493Z,4.60
2018-03-14T05:38:27.239Z,4.20
2018-03-14T05:40:54.977Z,4.20
2018-03-14T05:43:23.550Z,4.77
2018-03-14T05:45:51.269Z,4.10
2018-03-14T05:48:18.948Z,4.23
2018-03-14T05:50:46.590Z,4.00
2018-03-14T05:53:14.244Z,4.13
2018-03-14T05:55:41.898Z,4.00
2018-03-14T05:58:09.542Z,4.57
2018-03-14T06:00:37.944Z,3.83
2018-03-14T06:03:05.594Z,4.20
2018-03-14T06:05:33.232Z,4.53
2018-03-14T06:08:01.686Z,4.70
2018-03-14T06:10:29.361Z,4.13
2018-03-14T06:12:57.007Z,4.00
2018-03-14T06:15:24.672Z,4.03
2018-03-14T06:17:52.336Z,4.03
2018-03-14T06:20:20.014Z,4.10
2018-03-14T06:22:48.443Z,3.83
2018-03-14T06:25:16.136Z,4.63
2018-03-14T06:27:43.814Z,3.50
2018-03-14T06:30:12.226Z,3.63
2018-03-14T06:32:39.905Z,3.70
2018-03-14T06:35:07.606Z,3.67
2018-03-14T06:37:35.266Z,4.20
2018-03-14T06:40:02.933Z,3.60
2018-03-14T06:42:30.606Z,4.43
2018-03-14T06:44:58.288Z,4.07
2018-03-14T06:47:25.918Z,3.70
2018-03-14T06:49:54.353Z,4.30
2018-03-14T06:52:22.047Z,4.03
2018-03-14T06:54:49.700Z,4.57
2018-03-14T06:57:17.382Z,4.10
2018-03-14T06:59:57.623Z,3.67
2018-03-14T07:02:48.958Z,3.50
2018-03-14T07:05:29.319Z,3.40
2018-03-14T07:07:57.744Z,3.50
2018-03-14T07:10:25.392Z,3.33
2018-03-14T07:12:53.042Z,3.83
2018-03-14T07:15:20.716Z,3.47
2018-03-14T07:17:48.359Z,3.73
2018-03-14T07:20:16.008Z,3.77
2018-03-14T07:22:43.690Z,3.53
2018-03-14T07:25:11.352Z,2.87
2018-03-14T07:27:39.083Z,3.53
2018-03-14T07:30:07.528Z,3.40
2018-03-14T07:32:35.189Z,3.27
2018-03-14T07:35:02.844Z,2.83
2018-03-14T07:37:30.498Z,3.13
2018-03-14T07:39:58.157Z,3.50
2018-03-14T07:42:25.831Z,3.10
2018-03-14T07:44:53.506Z,3.03
2018-03-14T07:47:21.192Z,3.23
2018-03-14T07:49:49.612Z,3.27
2018-03-14T07:52:17.259Z,3.33
2018-03-14T07:54:44.996Z,3.57
2018-03-14T07:57:12.671Z,3.40
2018-03-14T07:59:40.343Z,2.80
2018-03-14T08:02:08.016Z,3.37
2018-03-14T08:04:35.685Z,3.73
2018-03-14T08:07:03.394Z,2.73
2018-03-14T08:09:31.821Z,3.87
2018-03-14T08:11:59.480Z,2.87
2018-03-14T08:14:27.140Z,3.10
2018-03-14T08:16:54.801Z,2.67
2018-03-14T08:19:22.471Z,3.17
2018-03-14T08:21:50.120Z,2.73
2018-03-14T08:24:17.986Z,3.20
2018-03-14T08:26:45.801Z,3.47
2018-03-14T08:29:13.656Z,3.40
2018-03-14T08:31:42.252Z,3.30
2018-03-14T08:34:10.066Z,2.77
2018-03-14T08:36:37.873Z,2.80
2018-03-14T08:39:05.705Z,3.57
2018-03-14T08:41:33.575Z,3.47
2018-03-14T08:44:01.369Z,3.00
2018-03-14T08:46:29.157Z,2.80
2018-03-14T08:48:56.881Z,3.30
2018-03-14T08:51:25.319Z,3.37
2018-03-14T08:53:52.981Z,3.27
2018-03-14T08:56:20.624Z,3.27
2018-03-14T08:58:48.301Z,2.97
2018-03-14T09:01:16.009Z,3.03
2018-03-14T09:03:44.476Z,2.93
2018-03-14T09:06:12.172Z,3.20
2018-03-14T09:08:39.842Z,3.70
2018-03-14T09:11:07.548Z,3.47
2018-03-14T09:13:35.172Z,2.97
2018-03-14T09:16:02.832Z,3.10
2018-03-14T09:18:30.479Z,3.60
2018-03-14T09:20:58.195Z,3.10
2018-03-14T09:23:25.820Z,3.60
2018-03-14T09:25:53.478Z,2.97
2018-03-14T09:28:21.162Z,3.20
2018-03-14T09:30:48.866Z,3.00
2018-03-14T09:33:17.355Z,3.17
2018-03-14T09:35:44.971Z,3.00
2018-03-14T09:38:12.649Z,3.30
2018-03-14T09:40:40.326Z,3.00
2018-03-14T09:43:08.761Z,3.20
2018-03-14T09:45:37.168Z,3.13
2018-03-14T09:48:04.831Z,2.73
2018-03-14T09:50:32.476Z,3.20
2018-03-14T09:53:00.160Z,2.60
2018-03-14T09:55:28.600Z,2.50
2018-03-14T09:57:56.244Z,3.13
2018-03-14T10:00:23.943Z,3.53
2018-03-14T10:02:51.658Z,2.97
2018-03-14T10:05:19.323Z,2.80
2018-03-14T10:07:46.996Z,3.53
2018-03-14T10:10:14.663Z,3.30
2018-03-14T10:12:43.155Z,3.30
2018-03-14T10:15:10.810Z,3.20
2018-03-14T10:17:39.244Z,3.57
2018-03-14T10:20:06.880Z,3.47
2018-03-14T10:22:35.320Z,3.10
2018-03-14T10:25:02.983Z,3.20
2018-03-14T10:27:30.628Z,3.50
2018-03-14T10:29:58.301Z,3.50
2018-03-14T10:32:25.943Z,2.90
2018-03-14T10:34:53.589Z,2.93
2018-03-14T10:37:21.236Z,3.00
2018-03-14T10:39:49.639Z,3.03
2018-03-14T10:42:17.287Z,2.93
2018-03-14T10:44:44.946Z,3.20
2018-03-14T10:47:12.583Z,2.97
2018-03-14T10:49:41.022Z,3.13
2018-03-14T10:52:08.688Z,3.20
2018-03-14T10:54:36.350Z,3.13
2018-03-14T10:57:04.006Z,3.30
2018-03-14T10:59:31.676Z,3.77
2018-03-14T11:02:14.237Z,3.73
2018-03-14T11:04:41.928Z,3.73
2018-03-14T11:07:09.564Z,4.20
2018-03-14T11:09:37.374Z,3.80
2018-03-14T11:12:05.021Z,3.60
2018-03-14T11:14:32.707Z,3.67
2018-03-14T11:17:00.355Z,4.50
2018-03-14T11:19:28.006Z,4.47
2018-03-14T11:21:55.700Z,3.60
2018-03-14T11:24:24.111Z,3.77
2018-03-14T11:26:51.798Z,4.30
2018-03-14T11:29:19.454Z,5.50
2018-03-14T11:31:47.104Z,3.57
2018-03-14T11:34:14.746Z,3.83
2018-03-14T11:36:42.418Z,3.93
2018-03-14T11:39:10.083Z,3.73
2018-03-14T11:41:37.718Z,4.70
2018-03-14T11:44:05.376Z,3.83
2018-03-14T11:46:33.809Z,4.17
2018-03-14T11:49:01.488Z,3.80
2018-03-14T11:51:29.164Z,3.83
2018-03-14T11:53:57.663Z,3.83
2018-03-14T11:56:25.319Z,3.63
2018-03-14T11:58:53.065Z,4.13
2018-03-14T12:01:21.488Z,3.73
2018-03-14T12:03:49.158Z,4.03
2018-03-14T12:06:16.829Z,3.83
2018-03-14T12:08:44.493Z,3.70
2018-03-14T12:11:12.156Z,3.30
2018-03-14T12:13:40.639Z,3.53
2018-03-14T12:16:09.165Z,3.80
2018-03-14T12:18:36.825Z,3.27
2018-03-14T12:21:04.477Z,3.50
2018-03-14T12:23:32.919Z,3.30
2018-03-14T12:26:00.606Z,3.00
2018-03-14T12:28:29.014Z,2.97
2018-03-14T12:30:56.833Z,3.00
2018-03-14T12:33:24.507Z,3.13
2018-03-14T12:35:52.931Z,2.20
2018-03-14T12:38:20.583Z,2.23
2018-03-14T12:40:48.240Z,2.10
2018-03-14T12:43:15.891Z,3.07
2018-03-14T12:45:43.561Z,2.40
2018-03-14T12:48:11.272Z,2.10
2018-03-14T12:50:38.935Z,2.40
2018-03-14T12:53:06.615Z,2.10
2018-03-14T12:55:35.019Z,2.20
2018-03-14T12:58:02.687Z,2.17
2018-03-14T13:00:30.345Z,2.93
2018-03-14T13:02:57.988Z,1.90
2018-03-14T13:05:25.645Z,2.27
2018-03-14T13:07:54.082Z,2.17
2018-03-14T13:10:21.721Z,1.53
2018-03-14T13:12:50.174Z,1.90
2018-03-14T13:15:17.843Z,2.00
2018-03-14T13:17:45.499Z,1.67
2018-03-14T13:20:13.161Z,2.93
2018-03-14T13:22:40.816Z,2.30
2018-03-14T13:25:09.252Z,1.97
2018-03-14T13:27:36.907Z,2.30
2018-03-14T13:30:04.649Z,2.47
2018-03-14T13:32:32.305Z,2.37
2018-03-14T13:34:59.993Z,2.07
2018-03-14T13:37:27.648Z,1.53
2018-03-14T13:39:56.076Z,1.53
2018-03-14T13:42:23.814Z,1.90
2018-03-14T13:44:51.456Z,1.80
2018-03-14T13:47:19.590Z,3.00
2018-03-14T13:49:47.476Z,1.77
2018-03-14T13:54:49.031Z,1.40
2018-03-14T13:57:16.694Z,2.10
2018-03-14T13:59:44.334Z,2.13
2018-03-14T14:02:12.931Z,1.80
2018-03-14T14:04:40.606Z,1.80
2018-03-14T14:07:08.295Z,1.57
2018-03-14T14:09:35.966Z,2.47
2018-03-14T14:12:04.426Z,2.23
2018-03-14T14:14:32.079Z,2.20
2018-03-14T14:16:59.717Z,2.03
2018-03-14T14:19:27.540Z,1.70
2018-03-14T14:21:55.323Z,2.13
2018-03-14T14:24:22.968Z,2.33
2018-03-14T14:26:51.376Z,2.63
2018-03-14T14:29:19.104Z,1.90
2018-03-14T14:31:46.783Z,1.77
2018-03-14T14:34:14.482Z,2.40
2018-03-14T14:36:42.130Z,2.03
2018-03-14T14:39:09.894Z,2.10
2018-03-14T14:41:37.605Z,4.03
2018-03-14T14:44:05.284Z,2.00
2018-03-14T14:46:32.977Z,2.30
2018-03-14T14:49:00.623Z,2.53
2018-03-14T14:51:28.283Z,2.43
2018-03-14T14:53:55.936Z,2.30
2018-03-14T14:56:23.625Z,1.90
2018-03-14T14:58:51.315Z,2.40
2018-03-14T15:01:19.736Z,2.80
2018-03-14T15:03:47.423Z,2.03
2018-03-14T15:06:15.113Z,1.77
2018-03-14T15:08:42.790Z,3.37
2018-03-14T15:11:11.197Z,2.60
2018-03-14T15:13:38.855Z,2.80
2018-03-14T15:16:06.499Z,2.93
2018-03-14T15:18:34.938Z,3.57
2018-03-14T15:21:02.627Z,3.30
2018-03-14T15:23:31.046Z,2.90
2018-03-14T15:25:58.686Z,3.70
2018-03-14T15:28:26.347Z,3.57
2018-03-14T15:30:53.989Z,3.30
2018-03-14T15:33:22.410Z,3.40
2018-03-14T15:35:50.062Z,3.40
2018-03-14T15:38:17.742Z,3.47
2018-03-14T15:40:45.406Z,4.30
2018-03-14T15:43:13.142Z,2.97
2018-03-14T15:45:40.780Z,2.90
2018-03-14T15:48:09.217Z,3.20
2018-03-14T15:50:36.879Z,2.77
2018-03-14T15:53:04.536Z,2.30
2018-03-14T15:55:32.174Z,2.10
2018-03-14T15:57:59.836Z,2.53
2018-03-14T16:00:27.500Z,2.23
2018-03-14T16:02:55.166Z,2.40
2018-03-14T16:05:23.575Z,1.97
2018-03-14T16:07:51.227Z,1.80
2018-03-14T16:10:18.861Z,2.10
2018-03-14T16:12:46.504Z,2.30
2018-03-14T16:15:14.159Z,2.40
2018-03-14T16:17:41.803Z,2.27
2018-03-14T16:20:10.240Z,2.03
2018-03-14T16:22:37.906Z,2.60
2018-03-14T16:25:05.582Z,2.63
2018-03-14T16:27:33.234Z,2.27
2018-03-14T16:30:00.895Z,2.20
2018-03-14T16:32:28.566Z,2.27
2018-03-14T16:34:56.203Z,2.20
2018-03-14T16:37:23.848Z,2.50
2018-03-14T16:39:51.484Z,1.80
2018-03-14T16:42:19.155Z,3.70
2018-03-14T16:44:46.815Z,6.50
2018-03-14T16:47:14.467Z,4.07
2018-03-14T16:49:42.123Z,3.10
2018-03-14T16:52:09.793Z,3.20
2018-03-14T16:54:37.434Z,3.57
2018-03-14T16:57:05.124Z,3.90
2018-03-14T16:59:32.800Z,3.80
2018-03-14T17:02:00.476Z,3.10
2018-03-14T17:04:28.202Z,2.53
2018-03-14T17:06:55.887Z,2.63
2018-03-14T17:09:23.590Z,2.87
2018-03-14T17:11:52.028Z,2.27
2018-03-14T17:14:27.135Z,2.83
2018-03-14T17:16:48.163Z,3.20
2018-03-14T17:19:15.847Z,2.90
2018-03-14T17:21:43.597Z,3.27
2018-03-14T17:24:11.324Z,2.93
2018-03-14T17:26:39.010Z,3.43
2018-03-14T17:29:06.699Z,3.83
2018-03-14T17:31:34.353Z,3.20
2018-03-14T17:34:02.026Z,3.47
2018-03-14T17:36:30.466Z,3.33
2018-03-14T17:38:58.894Z,3.17
2018-03-14T17:41:27.616Z,3.10
2018-03-14T17:43:55.610Z,2.60
2018-03-14T17:46:24.132Z,3.03
2018-03-14T17:48:52.558Z,3.23
2018-03-14T17:51:20.199Z,2.60
2018-03-14T17:53:47.895Z,2.50
2018-03-14T17:56:15.569Z,1.63
2018-03-14T17:58:43.252Z,1.90
2018-03-14T18:01:10.910Z,1.40
2018-03-14T18:03:39.349Z,1.63
2018-03-14T18:06:07.023Z,1.50
2018-03-14T18:08:34.686Z,1.73
2018-03-14T18:11:02.424Z,1.83
2018-03-14T18:13:30.076Z,1.67
2018-03-14T18:15:57.781Z,1.70
2018-03-14T18:18:26.194Z,1.77
2018-03-14T18:20:53.870Z,2.87
2018-03-14T18:23:21.586Z,1.80
2018-03-14T18:25:50.085Z,2.20
2018-03-14T18:28:17.759Z,2.47
2018-03-14T18:30:45.399Z,1.90
2018-03-14T18:33:13.878Z,1.80
2018-03-14T18:35:42.408Z,1.60
2018-03-14T18:38:10.913Z,1.43
2018-03-14T18:40:38.583Z,2.00
2018-03-14T18:43:06.281Z,1.70
2018-03-14T18:45:33.952Z,1.43
2018-03-14T18:48:01.597Z,1.80
2018-03-14T18:50:29.269Z,2.13
2018-03-14T18:52:56.942Z,1.90
2018-03-14T18:55:24.622Z,1.70
2018-03-14T18:57:52.287Z,1.70
2018-03-14T19:00:19.939Z,1.90
2018-03-14T19:02:47.785Z,1.60
2018-03-14T19:05:15.466Z,1.60
2018-03-14T19:07:43.122Z,1.93
2018-03-14T19:10:10.858Z,1.90
2018-03-14T19:12:38.531Z,2.20
2018-03-14T19:15:06.274Z,2.00
2018-03-14T19:17:33.958Z,1.90
2018-03-14T19:20:01.622Z,1.77
2018-03-14T19:22:29.304Z,1.80
2018-03-14T19:24:56.955Z,1.83
2018-03-14T19:27:24.625Z,1.90
2018-03-14T19:29:52.342Z,1.93
2018-03-14T19:32:20.007Z,1.80
2018-03-14T19:34:47.674Z,1.80
2018-03-14T19:37:15.401Z,2.10
2018-03-14T19:39:43.872Z,2.40
2018-03-14T19:42:12.337Z,2.40
2018-03-14T19:44:40.034Z,2.77
2018-03-14T19:47:07.703Z,2.63
2018-03-14T19:49:35.382Z,2.37
2018-03-14T19:52:03.102Z,2.60
2018-03-14T19:54:31.602Z,1.97
2018-03-14T19:57:00.022Z,1.63
2018-03-14T19:59:27.669Z,1.63
2018-03-14T20:01:55.307Z,1.87
2018-03-14T20:04:22.963Z,1.60
2018-03-14T20:06:50.623Z,1.77
2018-03-14T20:09:18.391Z,1.70
2018-03-14T20:11:46.088Z,1.90
2018-03-14T20:14:13.762Z,2.00
2018-03-14T20:16:41.441Z,1.80
2018-03-14T20:19:09.112Z,2.03
2018-03-14T20:21:37.534Z,1.83
2018-03-14T20:24:05.266Z,2.00
2018-03-14T20:26:33.012Z,1.87
2018-03-14T20:29:01.449Z,2.00
2018-03-14T20:31:29.124Z,1.93
2018-03-14T20:33:56.805Z,2.20
2018-03-14T20:36:25.232Z,1.93
2018-03-14T20:38:52.934Z,1.70
2018-03-14T20:41:20.631Z,2.73
2018-03-14T20:43:48.306Z,2.00
2018-03-14T20:46:15.976Z,2.30
2018-03-14T20:48:43.663Z,2.10
2018-03-14T20:51:11.350Z,2.53
2018-03-14T20:53:40.371Z,2.47
2018-03-14T20:56:08.111Z,2.17
2018-03-14T20:58:36.083Z,1.90
2018-03-14T21:01:04.511Z,2.40
2018-03-14T21:03:32.156Z,2.50
2018-03-14T21:05:59.851Z,2.23
2018-03-14T21:08:29.269Z,2.33
2018-03-14T21:10:57.709Z,2.07
2018-03-14T21:13:25.415Z,1.83
2018-03-14T21:15:53.864Z,1.90
2018-03-14T21:18:21.530Z,1.97
2018-03-14T21:20:49.280Z,2.27
2018-03-14T21:23:16.948Z,1.90
2018-03-14T21:25:44.678Z,1.80
2018-03-14T21:28:12.333Z,2.10
2018-03-14T21:30:40.005Z,2.33
2018-03-14T21:33:07.695Z,1.90
2018-03-14T21:35:35.344Z,2.00
2018-03-14T21:38:03.018Z,2.40
2018-03-14T21:40:30.701Z,3.33
2018-03-14T21:42:58.411Z,2.50
2018-03-14T21:45:26.088Z,2.60
2018-03-14T21:47:53.770Z,2.47
2018-03-14T21:50:21.424Z,2.30
2018-03-14T21:52:49.851Z,2.70
2018-03-14T21:55:17.576Z,3.00
2018-03-14T21:57:45.246Z,2.50
2018-03-14T22:00:12.941Z,3.40
2018-03-14T22:02:40.598Z,3.77
2018-03-14T22:05:08.321Z,3.37
2018-03-14T22:07:35.931Z,3.70
2018-03-14T22:10:03.619Z,3.60
2018-03-14T22:12:31.312Z,3.30
2018-03-14T22:14:58.976Z,2.90
2018-03-14T22:17:26.654Z,4.60
2018-03-14T22:19:55.181Z,3.47
2018-03-14T22:22:22.838Z,3.23
2018-03-14T22:24:51.290Z,3.70
2018-03-14T22:27:18.990Z,3.77
2018-03-14T22:29:46.644Z,3.67
2018-03-14T22:32:14.318Z,3.70
2018-03-14T22:34:42.721Z,3.37
2018-03-14T22:37:11.281Z,3.53
2018-03-14T22:39:39.041Z,3.70
2018-03-14T22:42:06.787Z,3.30
2018-03-14T22:44:35.339Z,3.13
2018-03-14T22:47:03.144Z,3.30
2018-03-14T22:49:31.685Z,3.60
2018-03-14T22:51:59.420Z,3.63
2018-03-14T22:54:27.921Z,3.70
2018-03-14T22:56:55.650Z,4.03
2018-03-14T22:59:24.168Z,3.33
2018-03-14T23:01:51.916Z,3.00
2018-03-14T23:04:19.665Z,3.20
2018-03-14T23:06:48.301Z,3.53
2018-03-14T23:09:16.046Z,3.07
2018-03-14T23:11:43.800Z,3.40
2018-03-14T23:14:11.538Z,3.93
2018-03-14T23:16:40.048Z,3.60
2018-03-14T23:19:07.785Z,4.03
2018-03-14T23:21:36.274Z,3.20
2018-03-14T23:24:03.978Z,3.43
2018-03-14T23:26:31.716Z,3.97
2018-03-14T23:28:59.450Z,3.30
2018-03-14T23:31:27.950Z,4.20
2018-03-14T23:33:55.693Z,3.70
2018-03-14T23:36:23.438Z,3.53
2018-03-14T23:38:51.933Z,3.70
2018-03-14T23:41:20.455Z,3.93
2018-03-14T23:43:48.215Z,3.90
2018-03-14T23:46:15.965Z,4.33
2018-03-14T23:48:43.716Z,4.10
2018-03-14T23:51:11.449Z,4.20
2018-03-14T23:53:39.970Z,3.80
2018-03-14T23:56:07.736Z,3.90
2018-03-14T23:58:35.484Z,4.60
